Time;durP1;ratioP1;P1;durP2;ratioP2;P2;SDS_P1;SDS_P2;PMS_P1;PMS_P2;Temp;Humidity;BMP_temperature;BMP_pressure;BME280_temperature;BME280_humidity;BME280_pressure;Samples;Min_cycle;Max_cycle;Signal;HPM_P1;HPM_P2
2020/12/08 00:01:59;;;;;;;29.63;14.67;;;4.00;99.90;;;;;;4975650;28;20675;-74
2020/12/08 00:04:25;;;;;;;33.37;16.20;;;3.90;99.90;;;;;;4972358;28;20682;-72
2020/12/08 00:07:06;;;;;;;33.53;15.57;;;4.00;99.90;;;;;;4978129;28;20209;-74
2020/12/08 00:09:32;;;;;;;27.47;13.77;;;4.00;99.90;;;;;;4971370;28;20247;-74
2020/12/08 00:11:59;;;;;;;31.30;15.00;;;4.00;99.90;;;;;;4976287;28;20206;-74
2020/12/08 00:14:26;;;;;;;31.97;15.53;;;4.00;99.90;;;;;;4972941;28;20261;-74
2020/12/08 00:16:53;;;;;;;29.20;13.97;;;4.00;99.90;;;;;;4974493;28;20214;-74
2020/12/08 00:19:19;;;;;;;29.70;14.67;;;4.00;99.90;;;;;;4972367;28;20289;-74
2020/12/08 00:21:47;;;;;;;31.57;13.83;;;3.90;99.90;;;;;;4969976;28;20328;-74
2020/12/08 00:24:15;;;;;;;29.40;13.77;;;3.90;99.90;;;;;;4970134;28;20280;-74
2020/12/08 00:26:43;;;;;;;28.40;12.53;;;3.90;99.90;;;;;;4975065;28;20771;-74
2020/12/08 00:29:10;;;;;;;28.17;13.13;;;3.90;99.90;;;;;;4969893;28;20236;-74
2020/12/08 00:31:38;;;;;;;28.40;13.13;;;3.90;99.90;;;;;;4965021;28;20230;-74
2020/12/08 00:34:05;;;;;;;26.77;12.37;;;3.90;99.90;;;;;;4968233;28;20257;-74
2020/12/08 00:36:32;;;;;;;30.87;13.93;;;3.90;99.90;;;;;;4972972;28;20242;-74
2020/12/08 00:38:58;;;;;;;29.50;14.07;;;3.90;99.90;;;;;;4974094;28;20312;-74
2020/12/08 00:41:25;;;;;;;28.90;14.03;;;3.90;99.90;;;;;;4972053;28;20580;-74
2020/12/08 00:43:51;;;;;;;27.80;14.07;;;3.90;99.90;;;;;;4971737;28;20593;-73
2020/12/08 00:46:20;;;;;;;28.37;13.50;;;3.90;99.90;;;;;;4974410;28;20245;-74
2020/12/08 00:48:47;;;;;;;29.93;13.27;;;3.90;99.90;;;;;;4968756;28;20240;-74
2020/12/08 00:51:14;;;;;;;31.00;13.80;;;3.90;99.90;;;;;;4969213;28;20277;-72
2020/12/08 00:53:40;;;;;;;30.20;13.77;;;3.80;99.90;;;;;;4966875;28;20765;-74
2020/12/08 00:56:11;;;;;;;26.53;13.37;;;3.90;99.90;;;;;;4974450;28;20229;-73
2020/12/08 00:58:37;;;;;;;24.43;13.13;;;3.90;99.90;;;;;;4968505;28;20279;-74
2020/12/08 01:01:04;;;;;;;26.50;12.90;;;3.90;99.90;;;;;;4975547;28;20307;-73
2020/12/08 01:03:32;;;;;;;28.50;13.83;;;3.90;99.90;;;;;;4964602;28;20265;-74
2020/12/08 01:05:59;;;;;;;25.67;13.10;;;3.90;99.90;;;;;;4966364;28;20223;-74
2020/12/08 01:08:26;;;;;;;26.40;13.37;;;3.90;99.90;;;;;;4970825;28;20627;-74
2020/12/08 01:10:53;;;;;;;31.57;13.20;;;3.80;99.90;;;;;;4971286;28;20222;-73
2020/12/08 01:13:19;;;;;;;24.80;12.67;;;3.80;99.90;;;;;;4971081;28;20664;-74
2020/12/08 01:15:46;;;;;;;30.90;15.23;;;3.80;99.90;;;;;;4970437;28;20241;-74
2020/12/08 01:18:13;;;;;;;31.17;13.33;;;3.80;99.90;;;;;;4971911;28;20696;-73
2020/12/08 01:20:39;;;;;;;27.83;13.20;;;3.80;99.90;;;;;;4970041;28;20798;-74
2020/12/08 01:23:07;;;;;;;28.23;13.10;;;3.80;99.90;;;;;;4969985;28;20250;-73
2020/12/08 01:25:33;;;;;;;25.90;12.97;;;3.90;99.90;;;;;;4972044;28;20233;-75
2020/12/08 01:28:00;;;;;;;27.00;12.93;;;3.80;99.90;;;;;;4970745;28;20764;-74
2020/12/08 01:30:26;;;;;;;27.37;13.00;;;3.80;99.90;;;;;;4972081;28;20313;-74
2020/12/08 01:32:53;;;;;;;22.00;11.87;;;3.80;99.90;;;;;;4965157;28;20264;-74
2020/12/08 01:35:20;;;;;;;28.10;13.03;;;3.80;99.90;;;;;;4965423;28;20245;-74
2020/12/08 01:37:46;;;;;;;24.33;12.60;;;3.80;99.90;;;;;;4964785;28;20207;-74
2020/12/08 01:40:14;;;;;;;28.60;14.00;;;3.80;99.90;;;;;;4973485;28;20317;-74
2020/12/08 01:42:40;;;;;;;26.53;13.43;;;3.80;99.90;;;;;;4969438;28;20314;-74
2020/12/08 01:45:08;;;;;;;26.80;13.20;;;3.80;99.90;;;;;;4967035;28;20212;-74
2020/12/08 01:47:35;;;;;;;27.23;13.03;;;3.80;99.90;;;;;;4966914;28;20206;-74
2020/12/08 01:50:02;;;;;;;26.53;12.87;;;3.80;99.90;;;;;;4971149;28;20225;-74
2020/12/08 01:52:28;;;;;;;25.67;13.07;;;3.80;99.90;;;;;;4967396;28;20248;-74
2020/12/08 01:54:57;;;;;;;26.23;13.20;;;3.80;99.90;;;;;;4970996;28;20212;-74
2020/12/08 01:57:25;;;;;;;28.57;13.63;;;3.80;99.90;;;;;;4969599;28;20224;-74
2020/12/08 01:59:53;;;;;;;24.77;13.63;;;3.80;99.90;;;;;;4972180;28;20314;-74
2020/12/08 02:02:19;;;;;;;28.33;12.97;;;3.80;99.90;;;;;;4965833;28;20242;-74
2020/12/08 02:04:46;;;;;;;27.17;12.87;;;3.80;99.90;;;;;;4964291;28;20229;-74
2020/12/08 02:07:12;;;;;;;29.10;13.87;;;3.80;99.90;;;;;;4966280;28;20295;-73
2020/12/08 02:09:39;;;;;;;25.90;13.03;;;3.80;99.90;;;;;;4966873;28;20233;-73
2020/12/08 02:12:05;;;;;;;29.80;14.40;;;3.80;99.90;;;;;;4968808;28;20236;-73
2020/12/08 02:14:34;;;;;;;30.03;13.93;;;3.80;99.90;;;;;;4965509;28;20214;-74
2020/12/08 02:17:00;;;;;;;31.63;14.33;;;3.80;99.90;;;;;;4965901;28;20203;-76
2020/12/08 02:19:30;;;;;;;29.83;15.70;;;3.70;99.90;;;;;;4968156;28;20736;-75
2020/12/08 02:21:57;;;;;;;32.17;15.77;;;3.80;99.90;;;;;;4966039;28;20295;-75
2020/12/08 02:24:24;;;;;;;29.63;14.83;;;3.70;99.90;;;;;;4966620;28;20248;-76
2020/12/08 02:26:50;;;;;;;31.03;14.27;;;3.80;99.90;;;;;;4962247;28;20595;-75
2020/12/08 02:29:17;;;;;;;31.50;14.43;;;3.80;99.90;;;;;;4959108;28;20284;-74
2020/12/08 02:31:43;;;;;;;27.57;14.20;;;3.80;99.90;;;;;;4961268;28;20312;-76
2020/12/08 02:34:09;;;;;;;27.43;14.23;;;3.70;99.90;;;;;;4964148;28;20355;-75
2020/12/08 02:36:38;;;;;;;28.83;14.03;;;3.80;99.90;;;;;;4962692;28;20678;-75
2020/12/08 02:39:08;;;;;;;30.53;14.97;;;3.70;99.90;;;;;;4963076;28;20213;-75
2020/12/08 02:41:34;;;;;;;28.23;13.57;;;3.70;99.90;;;;;;4963182;28;20742;-75
2020/12/08 02:44:01;;;;;;;30.77;14.70;;;3.70;99.90;;;;;;4962074;28;20287;-75
2020/12/08 02:46:28;;;;;;;27.27;13.90;;;3.70;99.90;;;;;;4959773;28;20240;-75
2020/12/08 02:48:54;;;;;;;35.83;14.53;;;3.70;99.90;;;;;;4962056;28;20307;-75
2020/12/08 02:51:21;;;;;;;31.23;14.83;;;3.60;99.90;;;;;;4958789;28;20245;-75
2020/12/08 02:53:47;;;;;;;27.83;14.40;;;3.60;99.90;;;;;;4965446;28;20259;-75
2020/12/08 02:56:15;;;;;;;32.40;14.27;;;3.60;99.90;;;;;;4962474;28;20225;-75
2020/12/08 02:58:41;;;;;;;28.60;14.23;;;3.60;99.90;;;;;;4959595;28;20299;-75
2020/12/08 03:01:08;;;;;;;28.97;14.23;;;3.60;99.90;;;;;;4964609;28;20287;-75
2020/12/08 03:03:34;;;;;;;29.00;14.87;;;3.60;99.90;;;;;;4967414;28;20241;-72
2020/12/08 03:06:04;;;;;;;29.07;13.43;;;3.60;99.90;;;;;;4960139;28;20241;-72
2020/12/08 03:08:30;;;;;;;33.17;14.70;;;3.60;99.90;;;;;;4963746;28;20221;-75
2020/12/08 03:10:57;;;;;;;31.73;14.80;;;3.60;99.90;;;;;;4965328;28;20223;-75
2020/12/08 03:13:24;;;;;;;30.77;14.73;;;3.60;99.90;;;;;;4963963;28;20230;-74
2020/12/08 03:15:50;;;;;;;33.40;15.87;;;3.50;99.90;;;;;;4964441;28;20257;-75
2020/12/08 03:18:17;;;;;;;31.70;15.23;;;3.50;99.90;;;;;;4964564;28;20269;-75
2020/12/08 03:20:43;;;;;;;30.33;14.80;;;3.50;99.90;;;;;;4965076;28;20670;-74
2020/12/08 03:23:10;;;;;;;30.47;15.10;;;3.40;99.90;;;;;;4965028;28;20249;-75
2020/12/08 03:25:36;;;;;;;32.57;15.43;;;3.50;99.90;;;;;;4960260;28;20202;-76
2020/12/08 03:28:02;;;;;;;28.77;14.03;;;3.50;99.90;;;;;;4964663;28;20283;-75
2020/12/08 03:30:30;;;;;;;30.30;14.80;;;3.40;99.90;;;;;;4958936;28;20214;-75
2020/12/08 03:32:56;;;;;;;28.33;14.47;;;3.50;99.90;;;;;;4961338;28;20237;-76
2020/12/08 03:35:23;;;;;;;30.30;14.83;;;3.50;99.90;;;;;;4962215;28;20702;-75
2020/12/08 03:37:49;;;;;;;31.00;14.80;;;3.50;99.90;;;;;;4961135;28;20241;-75
2020/12/08 03:40:15;;;;;;;31.57;15.00;;;3.50;99.90;;;;;;4970900;28;20265;-72
2020/12/08 03:42:42;;;;;;;32.33;15.07;;;3.50;99.90;;;;;;4965556;28;20797;-75
2020/12/08 03:45:08;;;;;;;29.50;14.17;;;3.40;99.90;;;;;;4960885;28;20244;-74
2020/12/08 03:47:35;;;;;;;31.43;14.33;;;3.40;99.90;;;;;;4961211;28;20237;-75
2020/12/08 03:50:02;;;;;;;29.97;13.97;;;3.40;99.90;;;;;;4959346;28;20384;-76
2020/12/08 03:52:28;;;;;;;27.40;13.57;;;3.40;99.90;;;;;;4962764;28;20218;-74
2020/12/08 03:54:55;;;;;;;31.67;15.10;;;3.40;99.90;;;;;;4960474;28;20303;-75
2020/12/08 03:57:21;;;;;;;27.33;14.03;;;3.30;99.90;;;;;;4962676;28;20238;-75
2020/12/08 03:59:48;;;;;;;29.10;14.50;;;3.30;99.90;;;;;;4963277;28;20727;-76
2020/12/08 04:02:15;;;;;;;28.03;13.73;;;3.30;99.90;;;;;;4960262;28;20248;-76
2020/12/08 04:04:42;;;;;;;30.07;14.50;;;3.30;99.90;;;;;;4961313;28;20272;-75
2020/12/08 04:07:09;;;;;;;31.93;14.43;;;3.30;99.90;;;;;;4958849;28;20210;-75
2020/12/08 04:09:35;;;;;;;29.60;14.33;;;3.30;99.90;;;;;;4962162;28;20205;-76
2020/12/08 04:12:02;;;;;;;31.87;14.47;;;3.20;99.90;;;;;;4960362;28;20293;-75
2020/12/08 04:14:28;;;;;;;26.30;12.90;;;3.30;99.90;;;;;;4961695;28;20249;-75
2020/12/08 04:16:55;;;;;;;24.30;12.57;;;3.20;99.90;;;;;;4964788;28;20237;-75
2020/12/08 04:19:21;;;;;;;25.97;11.67;;;3.20;99.90;;;;;;4959341;28;20959;-75
2020/12/08 04:21:48;;;;;;;24.30;11.90;;;3.20;99.90;;;;;;4963054;28;20298;-75
2020/12/08 04:24:15;;;;;;;25.00;12.70;;;3.20;99.90;;;;;;4957904;28;20229;-75
2020/12/08 04:26:45;;;;;;;27.37;12.27;;;3.20;99.90;;;;;;4954679;28;20244;-76
2020/12/08 04:29:12;;;;;;;25.10;12.30;;;3.20;99.90;;;;;;4955222;28;20221;-75
2020/12/08 04:31:38;;;;;;;22.67;11.50;;;3.20;99.90;;;;;;4959161;28;20276;-75
2020/12/08 04:34:05;;;;;;;24.73;12.23;;;3.20;99.90;;;;;;4960469;28;20244;-76
2020/12/08 04:36:31;;;;;;;27.17;12.80;;;3.10;99.90;;;;;;4958931;28;20256;-76
2020/12/08 04:38:58;;;;;;;27.00;12.10;;;3.10;99.90;;;;;;4960986;28;20381;-75
2020/12/08 04:41:26;;;;;;;27.43;12.80;;;3.10;99.90;;;;;;4965333;28;20225;-75
2020/12/08 04:43:54;;;;;;;28.10;13.33;;;3.10;99.90;;;;;;4969263;28;20292;-75
2020/12/08 04:46:21;;;;;;;23.87;12.23;;;3.10;99.90;;;;;;4964933;28;20241;-76
2020/12/08 04:48:49;;;;;;;24.67;12.13;;;3.20;99.90;;;;;;4964823;28;20268;-76
2020/12/08 04:51:15;;;;;;;22.10;11.60;;;3.10;99.90;;;;;;4961667;28;20285;-76
2020/12/08 04:53:42;;;;;;;29.33;12.90;;;3.10;99.90;;;;;;4965094;28;20277;-76
2020/12/08 04:56:09;;;;;;;24.13;12.23;;;3.10;99.90;;;;;;4965739;28;20233;-75
2020/12/08 04:58:36;;;;;;;24.83;12.30;;;3.10;99.90;;;;;;4963640;28;20835;-75
2020/12/08 05:01:02;;;;;;;26.67;12.03;;;3.10;99.90;;;;;;4965042;28;20727;-75
2020/12/08 05:03:30;;;;;;;28.10;12.83;;;3.10;99.90;;;;;;4963448;28;20245;-75
2020/12/08 05:05:57;;;;;;;25.20;11.83;;;3.10;99.90;;;;;;4963596;28;20751;-74
2020/12/08 05:08:23;;;;;;;22.73;10.70;;;3.10;99.90;;;;;;4964631;28;20284;-74
2020/12/08 05:10:50;;;;;;;23.17;11.87;;;3.10;99.90;;;;;;4962971;28;20222;-73
2020/12/08 05:13:19;;;;;;;23.80;12.27;;;3.10;99.90;;;;;;4976679;28;20280;-74
2020/12/08 05:15:59;;;;;;;23.93;12.00;;;3.10;99.90;;;;;;4968457;28;20206;-74
2020/12/08 05:18:25;;;;;;;24.60;11.83;;;3.10;99.90;;;;;;4967644;28;20224;-74
2020/12/08 05:20:52;;;;;;;24.53;11.47;;;3.00;99.90;;;;;;4970008;28;20248;-74
2020/12/08 05:23:18;;;;;;;23.87;11.97;;;3.00;99.90;;;;;;4968405;28;20389;-74
2020/12/08 05:25:45;;;;;;;21.70;11.90;;;3.00;99.90;;;;;;4963428;28;20276;-74
2020/12/08 05:28:19;;;;;;;27.63;12.67;;;3.00;99.90;;;;;;4968954;28;20721;-75
2020/12/08 05:30:46;;;;;;;23.90;11.33;;;3.00;99.90;;;;;;4965740;28;20253;-74
2020/12/08 05:33:16;;;;;;;26.00;11.47;;;3.00;99.90;;;;;;4966014;28;20636;-75
2020/12/08 05:35:46;;;;;;;24.50;11.80;;;3.00;99.90;;;;;;4968228;28;20205;-74
2020/12/08 05:38:16;;;;;;;24.20;11.33;;;3.10;99.90;;;;;;4969167;28;20767;-74
2020/12/08 05:40:45;;;;;;;24.47;11.30;;;3.10;99.90;;;;;;4963962;28;20232;-74
2020/12/08 05:43:11;;;;;;;22.10;11.10;;;3.00;99.90;;;;;;4954976;28;20202;-74
2020/12/08 05:45:39;;;;;;;23.50;11.03;;;3.00;99.90;;;;;;4964028;28;20225;-74
2020/12/08 05:48:05;;;;;;;25.37;12.07;;;3.00;99.90;;;;;;4962671;28;20234;-74
2020/12/08 05:50:32;;;;;;;24.70;11.63;;;3.00;99.90;;;;;;4966445;28;20257;-74
2020/12/08 05:52:59;;;;;;;25.53;12.23;;;2.90;99.90;;;;;;4969261;28;20287;-74
2020/12/08 05:55:28;;;;;;;24.33;12.13;;;2.90;99.90;;;;;;4964790;28;20303;-75
2020/12/08 05:58:04;;;;;;;26.70;12.73;;;2.90;99.90;;;;;;4970121;28;20276;-75
2020/12/08 06:00:31;;;;;;;24.77;11.67;;;2.90;99.90;;;;;;4959677;28;20772;-74
2020/12/08 06:03:11;;;;;;;22.57;11.50;;;2.90;99.90;;;;;;4965345;28;20268;-75
2020/12/08 06:05:38;;;;;;;23.83;11.70;;;2.90;99.90;;;;;;4967514;28;20206;-75
2020/12/08 06:08:16;;;;;;;22.60;10.47;;;2.90;99.90;;;;;;4969437;28;20726;-75
2020/12/08 06:10:47;;;;;;;22.20;11.37;;;2.90;99.90;;;;;;4966332;28;20645;-75
2020/12/08 06:13:23;;;;;;;26.57;11.83;;;2.90;99.90;;;;;;4963447;28;20202;-75
2020/12/08 06:15:50;;;;;;;26.50;12.67;;;2.80;99.90;;;;;;4963666;28;20205;-74
2020/12/08 06:18:28;;;;;;;24.57;11.83;;;2.80;99.90;;;;;;4966289;28;20240;-75
2020/12/08 06:20:55;;;;;;;26.20;12.87;;;2.90;99.90;;;;;;4972351;28;20665;-75
2020/12/08 06:23:22;;;;;;;23.30;11.73;;;2.90;99.90;;;;;;4964646;28;20658;-75
2020/12/08 06:25:56;;;;;;;24.77;11.17;;;2.90;99.90;;;;;;4963781;28;20201;-75
2020/12/08 06:28:22;;;;;;;23.33;11.63;;;2.90;99.90;;;;;;4965402;28;20269;-75
2020/12/08 06:30:49;;;;;;;22.33;11.17;;;2.90;99.90;;;;;;4965014;28;20256;-76
2020/12/08 06:33:16;;;;;;;21.13;10.83;;;2.90;99.90;;;;;;4962971;28;20206;-72
2020/12/08 06:35:43;;;;;;;20.23;10.27;;;2.90;99.90;;;;;;4964067;28;20233;-75
2020/12/08 06:38:09;;;;;;;24.80;11.33;;;2.90;99.90;;;;;;4968165;28;20209;-76
2020/12/08 06:40:36;;;;;;;22.90;11.27;;;2.90;99.90;;;;;;4958157;28;20710;-76
2020/12/08 06:43:02;;;;;;;24.63;11.33;;;2.90;99.90;;;;;;4961578;28;20224;-76
2020/12/08 06:45:29;;;;;;;20.77;10.80;;;2.90;99.90;;;;;;4959991;28;20232;-75
2020/12/08 06:47:55;;;;;;;23.97;11.00;;;2.90;99.90;;;;;;4967059;28;20236;-76
2020/12/08 06:50:24;;;;;;;22.33;10.93;;;2.90;99.90;;;;;;4971354;28;20303;-75
2020/12/08 06:52:52;;;;;;;22.53;10.83;;;3.00;99.90;;;;;;4961035;28;20213;-73
2020/12/08 06:55:18;;;;;;;20.13;9.67;;;3.00;99.90;;;;;;4965664;28;20683;-74
2020/12/08 06:57:44;;;;;;;19.63;10.03;;;3.00;99.90;;;;;;4967011;28;20296;-75
2020/12/08 07:00:12;;;;;;;21.33;10.00;;;3.00;99.90;;;;;;4965071;28;20264;-74
2020/12/08 07:02:48;;;;;;;22.10;10.63;;;3.00;99.90;;;;;;4966927;28;20227;-74
2020/12/08 07:05:19;;;;;;;23.13;10.57;;;3.00;99.90;;;;;;4967980;28;20852;-74
2020/12/08 07:07:48;;;;;;;20.67;10.53;;;3.00;99.90;;;;;;4967858;28;20202;-75
2020/12/08 07:10:15;;;;;;;20.00;9.80;;;3.00;99.90;;;;;;4967299;28;20238;-74
2020/12/08 07:12:46;;;;;;;19.70;9.73;;;3.00;99.90;;;;;;4960930;28;20651;-74
2020/12/08 07:15:17;;;;;;;18.63;9.50;;;3.00;99.90;;;;;;4966783;28;20217;-74
2020/12/08 07:17:44;;;;;;;21.30;10.13;;;3.00;99.90;;;;;;4965445;28;20232;-75
2020/12/08 07:20:11;;;;;;;20.20;9.23;;;3.00;99.90;;;;;;4965349;28;20257;-74
2020/12/08 07:22:44;;;;;;;21.73;9.43;;;3.00;99.90;;;;;;4963663;28;20344;-75
2020/12/08 07:25:14;;;;;;;18.80;9.43;;;3.00;99.90;;;;;;4967361;28;20594;-74
2020/12/08 07:27:43;;;;;;;21.33;9.60;;;3.00;99.90;;;;;;4966611;28;20210;-74
2020/12/08 07:30:11;;;;;;;17.87;8.80;;;3.00;99.90;;;;;;4971083;28;20282;-75
2020/12/08 07:32:38;;;;;;;20.10;9.00;;;3.00;99.90;;;;;;4963464;28;20604;-74
2020/12/08 07:35:05;;;;;;;21.60;9.47;;;3.00;99.90;;;;;;4968353;28;20302;-74
2020/12/08 07:37:38;;;;;;;17.07;8.63;;;3.00;99.90;;;;;;4961549;28;20273;-74
2020/12/08 07:40:09;;;;;;;19.27;9.37;;;3.00;99.90;;;;;;4967787;28;20232;-74
2020/12/08 07:42:37;;;;;;;20.77;10.17;;;3.00;99.90;;;;;;4964015;28;20625;-74
2020/12/08 07:45:08;;;;;;;20.13;9.53;;;3.00;99.90;;;;;;4967319;28;20238;-74
2020/12/08 07:47:34;;;;;;;17.67;8.50;;;3.00;99.90;;;;;;4967067;28;20202;-74
2020/12/08 07:50:01;;;;;;;20.80;9.87;;;3.00;99.90;;;;;;4962928;28;20254;-74
2020/12/08 07:52:28;;;;;;;17.13;8.50;;;3.00;99.90;;;;;;4963408;28;20241;-75
2020/12/08 07:54:54;;;;;;;17.47;8.60;;;3.10;99.90;;;;;;4961175;28;20241;-74
2020/12/08 07:57:20;;;;;;;24.03;9.83;;;3.10;99.90;;;;;;4961528;28;20206;-75
2020/12/08 07:59:48;;;;;;;18.23;8.90;;;3.10;99.90;;;;;;4964088;28;20230;-74
2020/12/08 08:02:14;;;;;;;16.77;8.20;;;3.10;99.90;;;;;;4963025;28;20205;-74
2020/12/08 08:04:41;;;;;;;16.80;8.50;;;3.20;99.90;;;;;;4970133;28;20248;-74
2020/12/08 08:07:07;;;;;;;15.37;7.73;;;3.20;99.90;;;;;;4964861;28;20260;-72
2020/12/08 08:09:33;;;;;;;15.07;8.20;;;3.20;99.90;;;;;;4964760;28;20611;-75
2020/12/08 08:12:02;;;;;;;17.57;8.60;;;3.20;99.90;;;;;;4964388;28;20246;-75
2020/12/08 08:14:28;;;;;;;16.57;8.70;;;3.20;99.90;;;;;;4965290;28;20210;-75
2020/12/08 08:16:55;;;;;;;16.30;8.37;;;3.20;99.90;;;;;;4970232;28;20210;-75
2020/12/08 08:19:22;;;;;;;17.27;8.73;;;3.20;99.90;;;;;;4964556;28;20217;-74
2020/12/08 08:21:48;;;;;;;16.73;8.60;;;3.20;99.90;;;;;;4964690;28;20317;-74
2020/12/08 08:24:14;;;;;;;25.07;8.87;;;3.20;99.90;;;;;;4967594;28;20297;-74
2020/12/08 08:26:41;;;;;;;18.67;9.53;;;3.20;99.90;;;;;;4966103;28;20209;-74
2020/12/08 08:29:08;;;;;;;13.00;7.57;;;3.20;99.90;;;;;;4967845;28;20660;-75
2020/12/08 08:31:34;;;;;;;16.00;8.00;;;3.20;99.90;;;;;;4965893;28;20675;-74
2020/12/08 08:34:02;;;;;;;16.80;8.73;;;3.30;99.90;;;;;;4963241;28;20214;-75
2020/12/08 08:36:29;;;;;;;25.63;12.83;;;3.20;99.90;;;;;;4965028;28;20212;-74
2020/12/08 08:38:55;;;;;;;19.67;9.93;;;3.30;99.90;;;;;;4964156;28;20324;-74
2020/12/08 08:41:21;;;;;;;19.33;9.67;;;3.30;99.90;;;;;;4967696;28;20559;-74
2020/12/08 08:43:48;;;;;;;20.90;9.87;;;3.30;99.90;;;;;;4964828;28;20294;-74
2020/12/08 08:46:14;;;;;;;22.43;10.10;;;3.30;99.90;;;;;;4962243;28;20206;-74
2020/12/08 08:48:41;;;;;;;22.30;10.60;;;3.30;99.90;;;;;;4959502;28;20292;-75
2020/12/08 08:51:08;;;;;;;17.43;8.70;;;3.30;99.90;;;;;;4963399;28;20335;-74
2020/12/08 08:53:34;;;;;;;18.00;8.93;;;3.30;99.90;;;;;;4966067;28;20314;-75
2020/12/08 08:56:01;;;;;;;19.43;9.63;;;3.30;99.90;;;;;;4965210;28;20257;-75
2020/12/08 08:58:27;;;;;;;17.93;9.03;;;3.30;99.90;;;;;;4964776;28;20299;-72
2020/12/08 09:00:53;;;;;;;18.27;9.07;;;3.40;99.90;;;;;;4957428;28;20230;-73
2020/12/08 09:03:20;;;;;;;20.20;10.03;;;3.50;99.90;;;;;;4956787;28;20258;-77
2020/12/08 09:05:46;;;;;;;19.00;9.43;;;3.60;99.90;;;;;;4977959;28;20225;-75
2020/12/08 09:08:14;;;;;;;19.40;9.57;;;3.70;99.90;;;;;;4962443;28;20630;-75
2020/12/08 09:10:40;;;;;;;18.07;8.77;;;3.80;99.90;;;;;;4964681;28;20667;-73
2020/12/08 09:13:06;;;;;;;20.90;10.37;;;3.80;99.90;;;;;;4962917;28;20245;-75
2020/12/08 09:15:33;;;;;;;20.80;10.60;;;3.80;99.90;;;;;;4962292;28;20294;-76
2020/12/08 09:17:59;;;;;;;22.90;10.20;;;3.80;99.90;;;;;;4966157;28;20265;-76
2020/12/08 09:20:26;;;;;;;19.63;9.80;;;3.80;99.90;;;;;;4963638;28;20611;-75
2020/12/08 09:22:52;;;;;;;17.87;9.10;;;3.90;99.90;;;;;;4960745;28;20248;-75
2020/12/08 09:25:22;;;;;;;16.67;8.77;;;3.90;99.90;;;;;;4959130;28;20742;-75
2020/12/08 09:27:49;;;;;;;16.50;9.03;;;4.00;99.90;;;;;;4960935;28;20206;-75
2020/12/08 09:30:15;;;;;;;17.13;8.43;;;4.00;99.90;;;;;;4960468;28;20740;-75
2020/12/08 09:32:42;;;;;;;16.93;7.47;;;4.10;99.90;;;;;;4963104;28;20214;-74
2020/12/08 09:35:08;;;;;;;18.43;8.83;;;4.20;99.90;;;;;;4961022;28;20240;-75
2020/12/08 09:37:34;;;;;;;15.60;8.33;;;4.20;99.90;;;;;;4958792;28;20376;-76
2020/12/08 09:40:01;;;;;;;18.07;8.20;;;4.30;99.90;;;;;;4960337;28;20238;-73
2020/12/08 09:42:28;;;;;;;15.20;7.80;;;4.30;99.90;;;;;;4961959;28;20481;-74
2020/12/08 09:44:55;;;;;;;13.87;7.77;;;4.40;99.90;;;;;;4961794;28;20684;-72
2020/12/08 09:47:21;;;;;;;15.63;7.83;;;4.50;99.90;;;;;;4960406;28;20216;-72
2020/12/08 09:49:47;;;;;;;15.27;7.80;;;4.60;99.90;;;;;;4957203;28;20212;-72
2020/12/08 09:52:14;;;;;;;14.27;8.03;;;4.70;99.90;;;;;;4959109;28;20749;-72
2020/12/08 09:54:41;;;;;;;15.50;7.70;;;4.80;99.90;;;;;;4960085;28;20289;-72
2020/12/08 09:57:07;;;;;;;13.63;7.10;;;4.90;99.90;;;;;;4963047;28;20209;-72
2020/12/08 09:59:35;;;;;;;11.60;6.50;;;4.90;99.90;;;;;;4959747;28;20300;-72
2020/12/08 10:02:02;;;;;;;11.20;6.17;;;4.90;99.90;;;;;;4962742;28;20230;-72
2020/12/08 10:04:29;;;;;;;11.27;6.03;;;4.80;99.90;;;;;;4959965;28;20213;-72
2020/12/08 10:06:55;;;;;;;10.83;6.00;;;4.60;99.90;;;;;;4960071;28;20221;-72
2020/12/08 10:09:22;;;;;;;12.37;6.67;;;4.60;99.90;;;;;;4961692;28;20298;-73
2020/12/08 10:11:48;;;;;;;11.27;6.03;;;4.60;99.90;;;;;;4958623;28;20619;-73
2020/12/08 10:14:15;;;;;;;9.67;4.87;;;4.60;99.90;;;;;;4961811;28;20303;-73
2020/12/08 10:16:42;;;;;;;8.90;5.37;;;4.70;99.90;;;;;;4960320;28;20296;-72
2020/12/08 10:19:08;;;;;;;10.43;5.57;;;4.60;99.90;;;;;;4958750;28;20208;-73
2020/12/08 10:21:35;;;;;;;9.37;5.57;;;4.60;99.90;;;;;;4961038;28;20229;-72
2020/12/08 10:24:03;;;;;;;12.47;5.60;;;4.70;99.90;;;;;;4960332;28;20210;-73
2020/12/08 10:26:29;;;;;;;8.83;4.90;;;4.80;99.90;;;;;;4962510;28;20220;-73
2020/12/08 10:28:56;;;;;;;7.27;4.77;;;4.90;99.90;;;;;;4966063;28;20691;-73
2020/12/08 10:31:22;;;;;;;7.87;4.80;;;4.80;99.90;;;;;;4959871;28;20373;-73
2020/12/08 10:33:50;;;;;;;11.30;5.27;;;4.80;99.90;;;;;;4965218;28;20366;-73
2020/12/08 10:36:17;;;;;;;9.93;5.27;;;4.80;99.90;;;;;;4965560;28;20217;-73
2020/12/08 10:38:43;;;;;;;7.63;4.53;;;4.80;99.90;;;;;;4963063;28;20236;-73
2020/12/08 10:41:10;;;;;;;9.00;4.93;;;4.70;99.90;;;;;;4960482;28;20237;-73
2020/12/08 10:43:37;;;;;;;8.40;5.10;;;4.70;99.90;;;;;;4961379;28;21554;-73
2020/12/08 10:46:03;;;;;;;10.83;5.30;;;4.70;99.90;;;;;;4963910;28;20297;-75
2020/12/08 10:48:30;;;;;;;10.97;6.07;;;4.70;99.90;;;;;;4958903;28;20808;-73
2020/12/08 10:50:58;;;;;;;13.27;6.37;;;4.80;99.90;;;;;;4964481;28;20213;-73
2020/12/08 10:53:24;;;;;;;11.27;6.60;;;4.80;99.90;;;;;;4957798;28;20230;-73
2020/12/08 10:55:50;;;;;;;14.77;5.90;;;4.80;99.90;;;;;;4960910;28;20680;-72
2020/12/08 10:58:17;;;;;;;9.53;5.60;;;4.70;99.90;;;;;;4958503;28;20297;-73
2020/12/08 11:00:44;;;;;;;8.77;5.30;;;4.70;99.90;;;;;;4964417;28;20233;-73
2020/12/08 11:03:11;;;;;;;8.17;5.27;;;4.70;99.90;;;;;;4962881;28;20827;-72
2020/12/08 11:05:38;;;;;;;8.27;4.97;;;4.70;99.90;;;;;;4962085;28;20651;-73
2020/12/08 11:08:06;;;;;;;8.60;5.30;;;4.70;99.90;;;;;;4959440;28;20759;-72
2020/12/08 11:10:32;;;;;;;8.50;5.20;;;4.80;99.90;;;;;;4964521;28;20313;-73
2020/12/08 11:12:59;;;;;;;8.60;4.67;;;4.70;99.90;;;;;;4959890;28;20293;-73
2020/12/08 11:15:25;;;;;;;9.30;5.10;;;4.70;99.90;;;;;;4965092;28;20317;-73
2020/12/08 11:17:51;;;;;;;13.80;6.87;;;4.70;99.90;;;;;;4961290;28;20261;-72
2020/12/08 11:20:19;;;;;;;10.10;5.77;;;4.60;99.90;;;;;;4959579;28;20850;-73
2020/12/08 11:22:45;;;;;;;9.40;5.50;;;4.60;99.90;;;;;;4961011;28;21364;-72
2020/12/08 11:25:12;;;;;;;9.10;5.03;;;4.60;99.90;;;;;;4960038;28;20296;-73
2020/12/08 11:27:39;;;;;;;11.33;5.47;;;4.60;99.90;;;;;;4960128;28;20230;-73
2020/12/08 11:30:06;;;;;;;12.37;6.37;;;4.60;99.90;;;;;;4960014;28;20222;-73
2020/12/08 11:32:32;;;;;;;12.10;5.73;;;4.70;99.90;;;;;;4960333;28;20744;-73
2020/12/08 11:34:59;;;;;;;9.10;5.50;;;4.80;99.90;;;;;;4958542;28;20289;-73
2020/12/08 11:37:28;;;;;;;11.13;6.07;;;4.90;99.90;;;;;;4958924;28;20627;-73
2020/12/08 11:39:54;;;;;;;11.80;5.90;;;5.00;99.90;;;;;;4965297;28;20328;-72
2020/12/08 11:42:21;;;;;;;9.60;5.47;;;5.00;99.90;;;;;;4960288;28;20307;-73
2020/12/08 11:44:48;;;;;;;9.47;5.73;;;5.00;99.90;;;;;;4961661;28;20740;-73
2020/12/08 11:47:15;;;;;;;12.70;6.63;;;5.10;99.90;;;;;;4961895;28;20240;-73
2020/12/08 11:49:42;;;;;;;13.17;6.93;;;5.10;99.90;;;;;;4965774;28;20201;-73
2020/12/08 12:35:48;;;;;;;10.90;6.30;;;5.10;99.90;;;;;;5003111;28;20550;-83
2020/12/08 12:38:15;;;;;;;11.30;6.70;;;5.00;99.90;;;;;;5011735;28;20485;-83
2020/12/08 12:40:41;;;;;;;10.33;5.97;;;5.00;99.90;;;;;;5004780;28;20280;-82
2020/12/08 12:43:12;;;;;;;11.53;6.73;;;5.00;99.90;;;;;;5003542;28;20229;-83
2020/12/08 13:10:11;;;;;;;11.07;6.20;;;4.80;99.90;;;;;;5008151;28;20355;-82
2020/12/08 13:12:39;;;;;;;12.30;6.30;;;4.70;99.90;;;;;;5015570;28;20205;-82
2020/12/08 13:15:05;;;;;;;10.63;6.27;;;4.70;99.90;;;;;;5016754;28;20316;-82
2020/12/08 13:17:31;;;;;;;11.23;6.10;;;4.60;99.90;;;;;;5008053;28;20247;-82
2020/12/08 13:19:58;;;;;;;11.47;6.43;;;4.70;99.90;;;;;;5011992;28;20295;-83
2020/12/08 13:22:25;;;;;;;11.03;6.30;;;4.70;99.90;;;;;;5004347;28;20228;-82
2020/12/08 13:24:51;;;;;;;11.23;6.23;;;4.80;99.90;;;;;;5014492;28;20264;-84
2020/12/08 13:27:18;;;;;;;10.63;6.03;;;4.90;99.90;;;;;;5009565;28;20197;-83
2020/12/08 13:29:48;;;;;;;10.27;5.70;;;5.00;99.90;;;;;;5005416;28;20224;-83
2020/12/08 13:32:15;;;;;;;10.53;6.00;;;5.10;99.90;;;;;;5005720;28;20235;-82
2020/12/08 13:34:42;;;;;;;10.93;5.63;;;5.20;99.90;;;;;;5006586;28;20248;-83
2020/12/08 13:41:03;;;;;;;11.90;5.80;;;5.30;99.90;;;;;;5005214;28;20231;-84
2020/12/08 14:48:33;;;;;;;13.93;7.53;;;3.60;99.90;;;;;;5014106;28;20200;-82
2020/12/08 14:51:03;;;;;;;13.33;7.30;;;3.50;99.90;;;;;;4989637;28;20200;-84
2020/12/08 14:53:32;;;;;;;14.30;7.40;;;3.40;99.90;;;;;;5010672;28;20237;-84
2020/12/08 15:02:12;;;;;;;14.00;5.93;;;3.20;99.90;;;;;;4975144;28;20236;-83
2020/12/08 19:25:10;;;;;;;38.63;17.53;;;1.20;99.90;;;;;;4988374;28;20248;-85